createdAt,value
2019-04-03T00:00:45.989Z,46.60
2019-04-03T00:01:53.369Z,46.70
2019-04-03T00:03:00.589Z,46.70
2019-04-03T00:04:08.876Z,46.70
2019-04-03T00:05:16.106Z,46.70
2019-04-03T00:06:23.313Z,46.80
2019-04-03T00:07:30.523Z,46.70
2019-04-03T00:08:37.734Z,46.80
2019-04-03T00:09:44.945Z,46.80
2019-04-03T00:10:52.185Z,46.80
2019-04-03T00:11:59.383Z,46.80
2019-04-03T00:13:06.835Z,46.80
2019-04-03T00:14:14.058Z,46.80
2019-04-03T00:15:21.297Z,46.90
2019-04-03T00:16:28.540Z,46.90
2019-04-03T00:17:35.767Z,47.00
2019-04-03T00:18:42.991Z,46.90
2019-04-03T00:19:50.188Z,46.90
2019-04-03T00:20:57.396Z,47.00
2019-04-03T00:22:04.787Z,47.00
2019-04-03T00:23:12.013Z,47.10
2019-04-03T00:24:19.263Z,47.10
2019-04-03T00:25:27.859Z,47.10
2019-04-03T00:26:35.089Z,47.10
2019-04-03T00:27:42.310Z,47.30
2019-04-03T00:28:50.709Z,47.10
2019-04-03T00:29:58.452Z,47.20
2019-04-03T00:31:05.682Z,47.20
2019-04-03T00:32:12.918Z,47.20
2019-04-03T00:33:20.137Z,47.20
2019-04-03T00:34:27.344Z,47.20
2019-04-03T00:35:34.570Z,47.30
2019-04-03T00:36:41.810Z,47.20
2019-04-03T00:37:49.083Z,47.20
2019-04-03T00:38:56.331Z,47.20
2019-04-03T00:40:03.582Z,47.20
2019-04-03T00:41:10.869Z,47.20
2019-04-03T00:42:18.088Z,47.10
2019-04-03T00:43:26.305Z,47.20
2019-04-03T00:44:33.515Z,47.20
2019-04-03T00:45:40.714Z,47.10
2019-04-03T00:46:47.952Z,47.10
2019-04-03T00:47:55.707Z,47.00
2019-04-03T00:49:04.492Z,47.00
2019-04-03T00:50:11.714Z,47.00
2019-04-03T00:51:18.939Z,47.10
2019-04-03T00:52:27.533Z,47.10
2019-04-03T00:53:35.312Z,47.10
2019-04-03T00:54:42.507Z,47.10
2019-04-03T00:55:49.717Z,47.20
2019-04-03T00:56:57.090Z,47.20
2019-04-03T00:58:37.844Z,47.20
2019-04-03T00:59:45.197Z,47.20
2019-04-03T01:00:52.376Z,47.20
2019-04-03T01:02:00.666Z,47.30
2019-04-03T01:03:08.960Z,47.30
2019-04-03T01:04:16.212Z,47.30
2019-04-03T01:05:23.438Z,47.50
2019-04-03T01:06:30.664Z,47.40
2019-04-03T01:07:37.877Z,47.40
2019-04-03T01:08:45.132Z,47.40
2019-04-03T01:09:52.329Z,47.40
2019-04-03T01:11:00.416Z,47.60
2019-04-03T01:12:08.521Z,47.60
2019-04-03T01:13:15.932Z,47.70
2019-04-03T01:14:23.142Z,47.80
2019-04-03T01:15:31.663Z,47.80
2019-04-03T01:16:39.392Z,47.80
2019-04-03T01:17:46.671Z,47.80
2019-04-03T01:18:53.874Z,47.80
2019-04-03T01:20:01.078Z,47.80
2019-04-03T01:21:08.483Z,47.80
2019-04-03T01:22:15.694Z,47.80
2019-04-03T01:23:22.935Z,47.70
2019-04-03T01:24:30.177Z,47.70
2019-04-03T01:25:39.144Z,47.70
2019-04-03T01:26:46.324Z,47.80
2019-04-03T01:27:53.601Z,47.80
2019-04-03T01:29:00.826Z,47.60
2019-04-03T01:30:09.367Z,47.60
2019-04-03T01:31:16.580Z,47.90
2019-04-03T01:32:23.913Z,47.70
2019-04-03T01:33:31.263Z,47.60
2019-04-03T01:34:38.507Z,47.80
2019-04-03T01:35:47.463Z,47.90
2019-04-03T01:36:54.699Z,47.90
2019-04-03T01:38:01.925Z,47.90
2019-04-03T01:39:09.360Z,47.90
2019-04-03T01:40:16.606Z,47.80
2019-04-03T01:41:23.806Z,47.80
2019-04-03T01:42:31.007Z,47.80
2019-04-03T01:43:38.593Z,47.70
2019-04-03T01:44:45.818Z,47.80
2019-04-03T01:45:53.077Z,47.70
2019-04-03T01:47:00.468Z,47.70
2019-04-03T01:48:07.695Z,47.70
2019-04-03T01:49:14.932Z,47.60
2019-04-03T01:50:22.157Z,47.60
2019-04-03T01:51:29.943Z,47.80
2019-04-03T01:52:37.528Z,47.90
2019-04-03T01:53:45.789Z,47.90
2019-04-03T01:54:52.999Z,48.00
2019-04-03T01:56:00.239Z,48.00
2019-04-03T01:57:07.619Z,48.00
2019-04-03T01:58:14.913Z,48.00
2019-04-03T01:59:22.139Z,47.90
2019-04-03T02:00:29.364Z,47.90
2019-04-03T02:01:38.674Z,47.90
2019-04-03T02:02:45.648Z,47.90
2019-04-03T02:03:52.948Z,48.00
2019-04-03T02:05:00.202Z,48.00
2019-04-03T02:06:07.431Z,48.10
2019-04-03T02:07:15.163Z,48.10
2019-04-03T02:08:23.714Z,48.20
2019-04-03T02:09:31.143Z,48.30
2019-04-03T02:10:38.342Z,48.30
2019-04-03T02:11:45.631Z,48.40
2019-04-03T02:12:52.853Z,48.40
2019-04-03T02:14:00.245Z,48.60
2019-04-03T02:15:07.634Z,48.60
2019-04-03T02:16:14.889Z,48.60
2019-04-03T02:17:24.074Z,48.70
2019-04-03T02:18:31.040Z,48.70
2019-04-03T02:19:38.251Z,48.70
2019-04-03T02:20:45.504Z,48.80
2019-04-03T02:21:52.739Z,48.70
2019-04-03T02:23:00.572Z,48.80
2019-04-03T02:24:07.940Z,48.80
2019-04-03T02:25:15.259Z,48.80
2019-04-03T02:26:22.470Z,48.80
2019-04-03T02:27:29.686Z,48.90
2019-04-03T02:28:36.906Z,49.00
2019-04-03T02:29:44.120Z,49.10
2019-04-03T02:30:51.351Z,49.00
2019-04-03T02:31:59.895Z,49.10
2019-04-03T02:33:07.106Z,49.20
2019-04-03T02:34:14.312Z,49.30
2019-04-03T02:35:21.507Z,49.40
2019-04-03T02:36:28.937Z,49.40
2019-04-03T02:37:36.262Z,49.60
2019-04-03T02:38:43.499Z,49.60
2019-04-03T02:39:51.774Z,49.60
2019-04-03T02:40:58.972Z,49.60
2019-04-03T02:42:08.863Z,49.60
2019-04-03T02:43:15.567Z,49.60
2019-04-03T02:44:22.927Z,49.60
2019-04-03T02:45:30.156Z,49.60
2019-04-03T02:46:37.437Z,49.60
2019-04-03T02:47:44.971Z,49.60
2019-04-03T02:48:52.349Z,49.60
2019-04-03T02:49:59.586Z,49.60
2019-04-03T02:51:06.808Z,49.60
2019-04-03T02:52:14.652Z,49.90
2019-04-03T02:53:22.929Z,50.00
2019-04-03T02:54:35.519Z,50.00
2019-04-03T02:55:42.504Z,50.00
2019-04-03T02:56:49.719Z,50.10
2019-04-03T02:57:57.024Z,50.00
2019-04-03T02:59:04.546Z,50.10
2019-04-03T03:00:12.177Z,50.10
2019-04-03T03:01:19.553Z,50.10
2019-04-03T03:02:26.852Z,50.10
2019-04-03T03:03:34.118Z,50.10
2019-04-03T03:04:41.351Z,50.00
2019-04-03T03:05:48.750Z,50.10
2019-04-03T03:06:57.130Z,49.80
2019-04-03T03:08:08.028Z,50.10
2019-04-03T03:09:15.204Z,50.20
2019-04-03T03:10:22.465Z,50.30
2019-04-03T03:11:29.765Z,50.40
2019-04-03T03:12:39.107Z,50.50
2019-04-03T03:13:48.058Z,50.60
2019-04-03T03:14:56.065Z,50.70
2019-04-03T03:16:03.617Z,50.90
2019-04-03T03:17:11.911Z,51.00
2019-04-03T03:18:19.682Z,51.00
2019-04-03T03:19:27.513Z,51.00
2019-04-03T03:20:38.517Z,51.00
2019-04-03T03:21:46.196Z,51.10
2019-04-03T03:22:55.293Z,51.20
2019-04-03T03:24:03.359Z,51.20
2019-04-03T03:25:11.467Z,51.90
2019-04-03T03:26:19.000Z,51.30
2019-04-03T03:27:26.695Z,51.40
2019-04-03T03:28:34.975Z,51.40
2019-04-03T03:29:43.976Z,51.40
2019-04-03T03:31:01.032Z,51.40
2019-04-03T03:32:13.240Z,51.40
2019-04-03T03:33:27.358Z,51.30
2019-04-03T03:34:46.271Z,51.30
2019-04-03T03:35:39.536Z,51.30
2019-04-03T03:36:40.550Z,51.30
2019-04-03T03:37:49.019Z,51.20
2019-04-03T03:38:58.640Z,51.10
2019-04-03T03:40:06.807Z,51.10
2019-04-03T03:41:15.298Z,51.10
2019-04-03T03:42:23.872Z,51.10
2019-04-03T03:43:31.426Z,51.20
2019-04-03T03:44:43.214Z,51.30
2019-04-03T03:45:51.446Z,51.40
2019-04-03T03:47:01.908Z,51.50
2019-04-03T03:48:11.103Z,51.60
2019-04-03T03:49:19.082Z,51.70
2019-04-03T03:50:27.191Z,51.80
2019-04-03T03:51:34.987Z,51.90
2019-04-03T03:52:42.943Z,51.80
2019-04-03T03:53:50.883Z,51.80
2019-04-03T03:54:58.663Z,51.80
2019-04-03T03:56:06.367Z,51.60
2019-04-03T03:57:14.778Z,51.70
2019-04-03T03:58:22.596Z,51.80
2019-04-03T03:59:30.806Z,51.70
2019-04-03T04:00:38.806Z,51.70
2019-04-03T04:01:46.288Z,51.90
2019-04-03T04:02:54.040Z,52.10
2019-04-03T04:04:01.658Z,51.90
2019-04-03T04:05:11.336Z,51.90
2019-04-03T04:06:18.416Z,52.10
2019-04-03T04:07:26.108Z,52.10
2019-04-03T04:08:33.631Z,52.10
2019-04-03T04:09:41.062Z,52.00
2019-04-03T04:10:48.209Z,52.00
2019-04-03T04:11:56.023Z,52.00
2019-04-03T04:13:03.672Z,52.00
2019-04-03T04:14:11.773Z,52.10
2019-04-03T04:15:19.622Z,52.10
2019-04-03T04:16:27.688Z,52.10
2019-04-03T04:17:35.854Z,52.80
2019-04-03T04:18:43.201Z,52.30
2019-04-03T04:19:50.498Z,52.40
2019-04-03T04:20:58.835Z,52.20
2019-04-03T04:22:06.048Z,52.40
2019-04-03T04:23:13.898Z,52.20
2019-04-03T04:24:21.501Z,52.20
2019-04-03T04:25:30.559Z,52.10
2019-04-03T04:26:38.394Z,52.10
2019-04-03T04:27:46.190Z,52.10
2019-04-03T04:28:53.466Z,52.30
2019-04-03T04:30:00.656Z,52.40
2019-04-03T04:31:07.855Z,52.40
2019-04-03T04:32:15.433Z,52.40
2019-04-03T04:33:23.003Z,52.50
2019-04-03T04:34:30.484Z,52.50
2019-04-03T04:35:37.765Z,52.50
2019-04-03T04:36:45.009Z,52.50
2019-04-03T04:37:52.233Z,52.60
2019-04-03T04:38:59.459Z,52.60
2019-04-03T04:40:07.028Z,52.60
2019-04-03T04:41:14.258Z,52.70
2019-04-03T04:42:21.451Z,52.70
2019-04-03T04:43:28.690Z,52.70
2019-04-03T04:44:35.917Z,52.70
2019-04-03T04:45:43.312Z,52.70
2019-04-03T04:46:50.698Z,52.70
2019-04-03T04:47:59.379Z,52.70
2019-04-03T04:49:06.635Z,52.70
2019-04-03T04:50:18.784Z,52.60
2019-04-03T04:51:26.452Z,52.50
2019-04-03T04:52:33.763Z,52.50
2019-04-03T04:53:40.969Z,52.50
2019-04-03T04:54:48.389Z,52.50
2019-04-03T04:55:55.572Z,52.50
2019-04-03T04:57:02.826Z,52.60
2019-04-03T04:58:11.665Z,52.50
2019-04-03T04:59:19.047Z,52.50
2019-04-03T05:00:29.226Z,52.60
2019-04-03T05:01:35.187Z,53.30
2019-04-03T05:02:42.412Z,52.70
2019-04-03T05:03:49.650Z,52.70
2019-04-03T05:04:56.860Z,52.80
2019-04-03T05:06:04.160Z,52.70
2019-04-03T05:07:11.471Z,52.80
2019-04-03T05:08:18.701Z,52.70
2019-04-03T05:09:25.958Z,52.70
2019-04-03T05:10:36.409Z,52.70
2019-04-03T05:11:42.403Z,53.10
2019-04-03T05:12:50.668Z,53.20
2019-04-03T05:13:57.927Z,52.50
2019-04-03T05:15:05.549Z,52.60
2019-04-03T05:16:12.795Z,52.70
2019-04-03T05:17:20.785Z,52.80
2019-04-03T05:18:29.307Z,52.90
2019-04-03T05:19:36.887Z,52.90
2019-04-03T05:20:44.517Z,52.90
2019-04-03T05:21:52.875Z,53.00
2019-04-03T05:23:00.739Z,53.00
2019-04-03T05:24:13.150Z,53.00
2019-04-03T05:25:16.907Z,52.90
2019-04-03T05:26:24.172Z,52.90
2019-04-03T05:27:33.499Z,52.80
2019-04-03T05:28:40.319Z,52.80
2019-04-03T05:29:47.912Z,53.40
2019-04-03T05:30:55.085Z,52.80
2019-04-03T05:32:02.299Z,52.90
2019-04-03T05:33:11.237Z,52.90
2019-04-03T05:34:18.415Z,53.00
2019-04-03T05:35:25.679Z,53.00
2019-04-03T05:36:32.922Z,53.00
2019-04-03T05:37:40.361Z,53.00
2019-04-03T05:38:47.559Z,52.90
2019-04-03T05:39:56.197Z,52.90
2019-04-03T05:41:03.454Z,52.90
2019-04-03T05:42:10.662Z,53.00
2019-04-03T05:43:18.149Z,53.20
2019-04-03T05:44:25.473Z,53.10
2019-04-03T05:45:34.690Z,53.30
2019-04-03T05:46:41.607Z,53.50
2019-04-03T05:47:48.863Z,53.40
2019-04-03T05:48:56.086Z,53.40
2019-04-03T05:50:03.535Z,53.40
2019-04-03T05:51:11.109Z,53.50
2019-04-03T05:52:18.348Z,53.50
2019-04-03T05:53:25.664Z,53.40
2019-04-03T05:54:32.907Z,53.50
2019-04-03T05:55:41.028Z,53.40
2019-04-03T05:56:51.320Z,53.50
2019-04-03T05:57:57.900Z,53.40
2019-04-03T05:59:05.095Z,53.40
2019-04-03T06:00:12.567Z,54.00
2019-04-03T06:01:19.742Z,53.70
2019-04-03T06:02:27.231Z,53.70
2019-04-03T06:03:40.846Z,53.60
2019-04-03T06:04:43.444Z,53.50
2019-04-03T06:05:50.834Z,53.40
2019-04-03T06:06:58.062Z,53.40
2019-04-03T06:08:05.287Z,53.50
2019-04-03T06:09:12.493Z,53.40
2019-04-03T06:10:19.740Z,53.40
2019-04-03T06:11:27.955Z,53.40
2019-04-03T06:12:36.683Z,54.00
2019-04-03T06:13:44.327Z,53.50
2019-04-03T06:14:51.479Z,53.50
2019-04-03T06:15:58.703Z,53.50
2019-04-03T06:17:05.925Z,53.40
2019-04-03T06:18:13.126Z,53.40
2019-04-03T06:19:21.447Z,53.10
2019-04-03T06:20:28.673Z,53.00
2019-04-03T06:21:35.967Z,52.80
2019-04-03T06:22:51.125Z,52.80
2019-04-03T06:23:58.593Z,52.60
2019-04-03T06:25:06.861Z,52.60
2019-04-03T06:26:14.320Z,52.60
2019-04-03T06:27:21.644Z,52.50
2019-04-03T06:28:29.668Z,52.40
2019-04-03T06:29:36.936Z,52.40
2019-04-03T06:30:44.756Z,52.40
2019-04-03T06:31:52.064Z,52.60
2019-04-03T06:33:01.985Z,52.60
2019-04-03T06:34:10.071Z,52.60
2019-04-03T06:35:17.403Z,52.60
2019-04-03T06:36:24.644Z,52.70
2019-04-03T06:37:32.244Z,52.60
2019-04-03T06:38:39.867Z,52.60
2019-04-03T06:39:47.168Z,52.70
2019-04-03T06:40:54.387Z,53.10
2019-04-03T06:42:01.682Z,52.90
2019-04-03T06:43:09.981Z,53.00
2019-04-03T06:44:17.325Z,53.10
2019-04-03T06:45:26.149Z,53.10
2019-04-03T06:46:33.594Z,53.10
2019-04-03T06:47:40.839Z,53.20
2019-04-03T06:48:48.274Z,53.30
2019-04-03T06:49:55.509Z,53.40
2019-04-03T06:51:02.764Z,53.30
2019-04-03T06:52:10.115Z,53.30
2019-04-03T06:53:17.605Z,53.40
2019-04-03T06:54:24.879Z,53.40
2019-04-03T06:55:33.215Z,53.40
2019-04-03T06:56:41.328Z,53.40
2019-04-03T06:57:49.107Z,53.20
2019-04-03T06:58:56.365Z,53.20
2019-04-03T07:00:03.589Z,53.10
2019-04-03T07:01:11.910Z,53.10
2019-04-03T07:02:19.155Z,53.20
2019-04-03T07:03:26.392Z,53.10
2019-04-03T07:04:33.672Z,53.10
2019-04-03T07:05:41.689Z,53.10
2019-04-03T07:06:49.350Z,53.00
2019-04-03T07:07:56.602Z,53.00
2019-04-03T07:09:06.294Z,53.00
2019-04-03T07:10:24.135Z,53.00
2019-04-03T07:11:23.923Z,53.30
2019-04-03T07:12:31.638Z,53.00
2019-04-03T07:13:38.916Z,53.00
2019-04-03T07:14:46.156Z,53.10
2019-04-03T07:15:55.745Z,53.00
2019-04-03T07:17:05.169Z,53.10
2019-04-03T07:18:11.497Z,53.10
2019-04-03T07:19:18.788Z,53.00
2019-04-03T07:20:26.034Z,52.80
2019-04-03T07:21:33.291Z,52.80
2019-04-03T07:22:40.516Z,52.80
2019-04-03T07:23:48.028Z,52.60
2019-04-03T07:24:55.301Z,52.70
2019-04-03T07:26:02.946Z,52.60
2019-04-03T07:27:14.408Z,52.60
2019-04-03T07:28:20.336Z,52.60
2019-04-03T07:29:28.552Z,52.50
2019-04-03T07:30:35.822Z,52.40
2019-04-03T07:31:43.051Z,52.40
2019-04-03T07:32:50.304Z,52.30
2019-04-03T07:33:58.601Z,52.30
2019-04-03T07:35:10.149Z,52.20
2019-04-03T07:36:15.754Z,52.30
2019-04-03T07:37:22.960Z,52.10
2019-04-03T07:38:30.170Z,52.10
2019-04-03T07:39:37.417Z,52.00
2019-04-03T07:40:44.652Z,51.90
2019-04-03T07:41:54.433Z,52.00
2019-04-03T07:43:00.874Z,52.10
2019-04-03T07:44:08.120Z,52.10
2019-04-03T07:45:16.136Z,52.00
2019-04-03T07:46:23.411Z,52.10
2019-04-03T07:47:34.339Z,52.00
2019-04-03T07:48:40.696Z,52.00
2019-04-03T07:49:47.935Z,51.90
2019-04-03T07:50:55.164Z,52.00
2019-04-03T07:52:02.583Z,51.80
2019-04-03T07:53:09.880Z,51.70
2019-04-03T07:54:17.112Z,51.70
2019-04-03T07:55:27.713Z,51.70
2019-04-03T07:56:34.144Z,52.00
2019-04-03T07:57:41.618Z,52.10
2019-04-03T07:58:49.177Z,52.00
2019-04-03T07:59:56.591Z,51.80
2019-04-03T08:01:03.785Z,51.60
2019-04-03T08:02:12.808Z,51.50
2019-04-03T08:03:20.708Z,51.40
2019-04-03T08:04:29.147Z,51.40
2019-04-03T08:05:36.813Z,51.40
2019-04-03T08:06:44.371Z,51.40
2019-04-03T08:07:52.506Z,51.40
2019-04-03T08:09:07.665Z,51.60
2019-04-03T08:10:10.831Z,51.40
2019-04-03T08:11:18.055Z,51.50
2019-04-03T08:12:25.562Z,51.40
2019-04-03T08:13:32.777Z,51.40
2019-04-03T08:14:41.129Z,51.50
2019-04-03T08:15:49.134Z,51.60
2019-04-03T08:16:57.238Z,51.80
2019-04-03T08:18:04.565Z,51.60
2019-04-03T08:19:11.949Z,51.50
2019-04-03T08:20:20.053Z,51.70
2019-04-03T08:21:28.066Z,51.90
2019-04-03T08:22:36.916Z,52.10
2019-04-03T08:23:44.269Z,52.00
2019-04-03T08:24:53.319Z,52.00
2019-04-03T08:26:00.669Z,52.00
2019-04-03T08:27:08.670Z,52.10
2019-04-03T08:28:16.114Z,52.20
2019-04-03T08:29:23.335Z,52.80
2019-04-03T08:30:30.615Z,52.40
2019-04-03T08:31:37.818Z,52.10
2019-04-03T08:32:47.699Z,51.80
2019-04-03T08:33:53.978Z,51.90
2019-04-03T08:35:03.732Z,51.70
2019-04-03T08:36:22.587Z,51.80
2019-04-03T08:37:29.623Z,51.40
2019-04-03T08:38:27.993Z,51.20
2019-04-03T08:39:35.240Z,51.10
2019-04-03T08:40:42.569Z,51.10
2019-04-03T08:41:49.863Z,51.10
2019-04-03T08:42:59.403Z,51.30
2019-04-03T08:44:08.436Z,51.40
2019-04-03T08:45:16.244Z,51.70
2019-04-03T08:46:23.441Z,51.70
2019-04-03T08:47:30.913Z,51.80
2019-04-03T08:48:38.394Z,51.90
2019-04-03T08:49:45.704Z,51.90
2019-04-03T08:50:52.930Z,51.60
2019-04-03T08:52:00.395Z,51.70
2019-04-03T08:53:08.759Z,51.60
2019-04-03T08:54:16.198Z,51.70
2019-04-03T08:55:23.438Z,51.70
2019-04-03T08:56:30.665Z,52.00
2019-04-03T08:57:38.191Z,52.00
2019-04-03T08:58:45.996Z,51.80
2019-04-03T08:59:53.349Z,51.70
2019-04-03T09:01:03.664Z,51.50
2019-04-03T09:02:12.736Z,51.60
2019-04-03T09:03:19.543Z,51.60
2019-04-03T09:04:26.784Z,51.60
2019-04-03T09:05:34.084Z,51.20
2019-04-03T09:06:41.296Z,50.80
2019-04-03T09:07:48.552Z,50.80
2019-04-03T09:08:58.211Z,50.90
2019-04-03T09:10:05.377Z,50.90
2019-04-03T09:11:12.621Z,50.80
2019-04-03T09:12:19.899Z,50.90
2019-04-03T09:13:27.174Z,50.90
2019-04-03T09:14:34.896Z,50.90
2019-04-03T09:15:42.407Z,50.70
2019-04-03T09:16:50.038Z,50.90
2019-04-03T09:17:57.670Z,51.00
2019-04-03T09:19:04.978Z,50.90
2019-04-03T09:20:13.865Z,50.40
2019-04-03T09:21:21.710Z,50.20
2019-04-03T09:22:29.138Z,50.10
2019-04-03T09:23:36.530Z,50.60
2019-04-03T09:24:44.059Z,50.90
2019-04-03T09:25:51.552Z,50.50
2019-04-03T09:26:58.837Z,50.20
2019-04-03T09:28:06.206Z,49.90
2019-04-03T09:29:13.792Z,49.80
2019-04-03T09:30:22.062Z,49.90
2019-04-03T09:31:29.287Z,50.00
2019-04-03T09:32:37.509Z,50.40
2019-04-03T09:33:46.440Z,50.40
2019-04-03T09:34:54.143Z,49.60
2019-04-03T09:36:03.390Z,49.70
2019-04-03T09:37:10.275Z,49.80
2019-04-03T09:38:17.530Z,49.70
2019-04-03T09:39:25.062Z,50.10
2019-04-03T09:40:32.282Z,50.20
2019-04-03T09:41:39.617Z,50.20
2019-04-03T09:42:46.808Z,49.70
2019-04-03T09:43:54.703Z,50.30
2019-04-03T09:45:01.991Z,49.80
2019-04-03T09:46:09.476Z,49.90
2019-04-03T09:47:16.809Z,50.30
2019-04-03T09:48:24.061Z,51.10
2019-04-03T09:49:31.261Z,50.10
2019-04-03T09:50:38.515Z,49.70
2019-04-03T09:51:46.025Z,49.10
2019-04-03T09:52:54.901Z,49.50
2019-04-03T09:54:02.144Z,49.10
2019-04-03T09:55:09.774Z,49.70
2019-04-03T09:56:17.076Z,49.30
2019-04-03T09:57:24.540Z,48.80
2019-04-03T09:58:34.575Z,48.80
2019-04-03T09:59:40.779Z,48.60
2019-04-03T10:00:48.051Z,48.60
2019-04-03T10:01:55.292Z,48.40
2019-04-03T10:03:05.384Z,48.80
2019-04-03T10:04:11.471Z,49.10
2019-04-03T10:05:18.719Z,49.20
2019-04-03T10:06:25.922Z,49.50
2019-04-03T10:07:36.336Z,50.40
2019-04-03T10:08:43.584Z,50.10
2019-04-03T10:09:53.748Z,49.90
2019-04-03T10:10:59.855Z,49.90
2019-04-03T10:12:07.182Z,50.10
2019-04-03T10:13:14.500Z,50.40
2019-04-03T10:14:21.735Z,50.00
2019-04-03T10:15:31.515Z,49.20
2019-04-03T10:16:38.024Z,48.10
2019-04-03T10:17:45.504Z,47.20
2019-04-03T10:18:52.788Z,47.30
2019-04-03T10:20:00.035Z,47.10
2019-04-03T10:21:07.282Z,46.80
2019-04-03T10:22:14.469Z,47.20
2019-04-03T10:23:21.708Z,47.10
2019-04-03T10:24:30.986Z,47.90
2019-04-03T10:25:38.403Z,46.30
2019-04-03T10:26:45.924Z,45.80
2019-04-03T10:27:53.218Z,46.30
2019-04-03T10:29:00.464Z,46.10
2019-04-03T10:30:11.012Z,45.60
2019-04-03T10:31:18.312Z,45.80
2019-04-03T10:32:27.981Z,45.70
2019-04-03T10:33:34.681Z,45.50
2019-04-03T10:34:41.911Z,45.40
2019-04-03T10:35:49.179Z,45.40
2019-04-03T10:36:56.412Z,45.20
2019-04-03T10:38:03.739Z,45.00
2019-04-03T10:39:13.422Z,45.00
2019-04-03T10:40:23.532Z,45.80
2019-04-03T10:41:31.514Z,45.40
2019-04-03T10:42:40.215Z,46.10
2019-04-03T10:43:47.665Z,44.80
2019-04-03T10:44:54.956Z,46.70
2019-04-03T10:46:02.204Z,46.50
2019-04-03T10:47:09.478Z,45.40
2019-04-03T10:48:16.769Z,45.50
2019-04-03T10:49:24.081Z,44.20
2019-04-03T10:50:31.640Z,45.30
2019-04-03T10:51:40.941Z,45.80
2019-04-03T10:52:49.239Z,46.10
2019-04-03T10:53:56.579Z,45.90
2019-04-03T10:55:03.920Z,45.30
2019-04-03T10:56:11.180Z,45.40
2019-04-03T10:57:18.634Z,45.10
2019-04-03T10:58:25.993Z,45.30
2019-04-03T10:59:33.251Z,44.00
2019-04-03T11:00:40.716Z,44.50
2019-04-03T11:01:48.167Z,44.60
2019-04-03T11:02:55.559Z,44.60
2019-04-03T11:04:02.827Z,44.50
2019-04-03T11:05:11.021Z,45.50
2019-04-03T11:06:18.381Z,45.70
2019-04-03T11:07:25.758Z,45.30
2019-04-03T11:08:33.076Z,44.90
2019-04-03T11:09:40.369Z,44.00
2019-04-03T11:10:47.633Z,43.80
2019-04-03T11:11:54.911Z,44.40
2019-04-03T11:13:03.579Z,44.70
2019-04-03T11:14:11.113Z,44.70
2019-04-03T11:15:18.554Z,44.20
2019-04-03T11:16:27.729Z,44.30
2019-04-03T11:17:35.109Z,44.30
2019-04-03T11:18:42.520Z,43.80
2019-04-03T11:19:49.726Z,43.20
2019-04-03T11:20:56.982Z,42.80
2019-04-03T11:22:04.225Z,43.10
2019-04-03T11:23:11.483Z,43.50
2019-04-03T11:24:19.082Z,43.20
2019-04-03T11:25:27.467Z,43.80
2019-04-03T11:26:34.688Z,43.70
2019-04-03T11:27:44.826Z,43.80
2019-04-03T11:28:50.843Z,43.90
2019-04-03T11:29:58.188Z,44.00
2019-04-03T11:31:05.505Z,44.20
2019-04-03T11:32:12.952Z,43.40
2019-04-03T11:33:21.386Z,42.60
2019-04-03T11:34:28.927Z,43.10
2019-04-03T11:35:36.215Z,44.00
2019-04-03T11:36:43.462Z,44.10
2019-04-03T11:37:50.730Z,44.60
2019-04-03T11:39:11.062Z,43.90
2019-04-03T11:40:08.769Z,43.10
2019-04-03T11:41:19.136Z,42.90
2019-04-03T11:42:28.668Z,43.60
2019-04-03T11:43:33.991Z,43.00
2019-04-03T11:44:41.178Z,42.40
2019-04-03T11:45:48.384Z,43.40
2019-04-03T11:46:55.903Z,42.90
2019-04-03T11:48:03.174Z,42.60
2019-04-03T11:49:10.485Z,42.40
2019-04-03T11:50:18.389Z,42.60
2019-04-03T11:51:28.995Z,41.90
2019-04-03T11:52:34.658Z,41.40
2019-04-03T11:53:44.539Z,41.20
2019-04-03T11:54:52.778Z,41.20
2019-04-03T11:55:59.763Z,41.50
2019-04-03T11:57:07.030Z,41.20
2019-04-03T11:58:14.350Z,41.60
2019-04-03T11:59:23.709Z,41.90
2019-04-03T12:00:35.226Z,42.10
2019-04-03T12:01:43.193Z,41.60
2019-04-03T12:02:50.562Z,42.00
2019-04-03T12:03:57.838Z,41.90
2019-04-03T12:05:05.846Z,42.00
2019-04-03T12:06:15.678Z,41.50
2019-04-03T12:07:22.865Z,42.60
2019-04-03T12:08:32.412Z,41.70
2019-04-03T12:09:39.699Z,41.70
2019-04-03T12:10:47.279Z,40.50
2019-04-03T12:11:55.502Z,40.50
2019-04-03T12:13:04.191Z,40.30
2019-04-03T12:14:11.995Z,41.00
2019-04-03T12:15:21.412Z,41.10
2019-04-03T12:16:28.191Z,40.70
2019-04-03T12:17:35.496Z,41.30
2019-04-03T12:18:42.816Z,40.20
2019-04-03T12:19:50.063Z,40.00
2019-04-03T12:20:57.636Z,40.40
2019-04-03T12:22:04.911Z,40.50
2019-04-03T12:23:12.190Z,40.30
2019-04-03T12:24:19.407Z,39.10
2019-04-03T12:25:26.643Z,39.50
2019-04-03T12:26:33.854Z,40.10
2019-04-03T12:27:41.471Z,40.20
2019-04-03T12:28:50.018Z,39.70
2019-04-03T12:29:57.381Z,39.50
2019-04-03T12:31:05.081Z,39.60
2019-04-03T12:32:12.430Z,39.60
2019-04-03T12:33:21.227Z,39.50
2019-04-03T12:34:28.554Z,39.30
2019-04-03T12:35:35.804Z,39.30
2019-04-03T12:36:45.199Z,40.00
2019-04-03T12:37:52.245Z,39.00
2019-04-03T12:38:59.781Z,38.80
2019-04-03T12:40:09.825Z,39.30
2019-04-03T12:41:17.034Z,39.30
2019-04-03T12:42:24.560Z,40.00
2019-04-03T12:43:35.008Z,39.60
2019-04-03T12:44:42.193Z,39.20
2019-04-03T12:45:49.424Z,39.30
2019-04-03T12:46:56.818Z,38.60
2019-04-03T12:48:04.069Z,38.30
2019-04-03T12:49:11.277Z,38.80
2019-04-03T12:50:18.743Z,38.50
2019-04-03T12:51:25.938Z,38.80
2019-04-03T12:52:33.324Z,40.10
2019-04-03T12:53:40.657Z,39.50
2019-04-03T12:54:48.795Z,39.40
2019-04-03T12:55:58.004Z,39.30
2019-04-03T12:57:05.650Z,38.60
2019-04-03T12:58:12.876Z,39.00
2019-04-03T12:59:20.996Z,38.80
2019-04-03T13:00:28.560Z,38.60
2019-04-03T13:01:35.878Z,39.30
2019-04-03T13:02:43.300Z,39.10
2019-04-03T13:03:50.911Z,39.70
2019-04-03T13:05:00.420Z,37.80
2019-04-03T13:06:09.710Z,37.70
2019-04-03T13:07:16.206Z,38.20
2019-04-03T13:08:23.403Z,37.60
2019-04-03T13:09:30.775Z,37.10
2019-04-03T13:10:42.698Z,37.20
2019-04-03T13:11:49.827Z,37.40
2019-04-03T13:12:57.186Z,37.30
2019-04-03T13:14:04.884Z,37.40
2019-04-03T13:15:12.925Z,37.60
2019-04-03T13:16:21.926Z,37.90
2019-04-03T13:17:29.430Z,38.20
2019-04-03T13:18:36.655Z,38.70
2019-04-03T13:19:44.022Z,37.80
2019-04-03T13:20:51.272Z,37.90
2019-04-03T13:21:58.515Z,38.70
2019-04-03T13:23:05.723Z,38.70
2019-04-03T13:24:16.065Z,38.70
2019-04-03T13:25:22.286Z,38.80
2019-04-03T13:26:29.639Z,39.10
2019-04-03T13:27:37.582Z,39.30
2019-04-03T13:28:45.006Z,39.20
2019-04-03T13:29:52.331Z,39.30
2019-04-03T13:30:59.624Z,39.60
2019-04-03T13:32:06.856Z,39.50
2019-04-03T13:33:16.575Z,39.80
2019-04-03T13:34:23.131Z,39.70
2019-04-03T13:35:30.830Z,40.30
2019-04-03T13:36:38.172Z,40.10
2019-04-03T13:37:45.423Z,40.10
2019-04-03T13:38:52.680Z,40.10
2019-04-03T13:40:00.931Z,40.00
2019-04-03T13:41:10.645Z,40.00
2019-04-03T13:42:18.297Z,40.30
2019-04-03T13:43:25.709Z,39.80
2019-04-03T13:44:33.455Z,39.20
2019-04-03T13:45:41.050Z,40.40
2019-04-03T13:46:48.880Z,40.30
2019-04-03T13:47:56.495Z,41.50
2019-04-03T13:49:03.774Z,40.90
2019-04-03T13:50:11.719Z,41.30
2019-04-03T13:51:18.998Z,40.90
2019-04-03T13:52:39.074Z,40.40
2019-04-03T13:53:35.946Z,39.50
2019-04-03T13:54:45.193Z,39.80
2019-04-03T13:55:52.184Z,39.20
2019-04-03T13:56:59.398Z,39.20
2019-04-03T13:58:07.006Z,38.50
2019-04-03T13:59:14.387Z,38.20
2019-04-03T14:00:23.660Z,37.90
2019-04-03T14:01:31.525Z,37.90
2019-04-03T14:02:38.908Z,38.60
2019-04-03T14:03:46.362Z,38.20
2019-04-03T14:04:54.704Z,37.50
2019-04-03T14:06:04.475Z,37.00
2019-04-03T14:07:11.556Z,38.60
2019-04-03T14:08:18.768Z,38.50
2019-04-03T14:09:26.103Z,37.90
2019-04-03T14:10:33.391Z,37.50
2019-04-03T14:11:41.069Z,37.80
2019-04-03T14:12:49.878Z,37.70
2019-04-03T14:13:57.407Z,37.80
2019-04-03T14:15:05.580Z,37.50
2019-04-03T14:16:19.951Z,37.30
2019-04-03T14:17:21.768Z,37.60
2019-04-03T14:18:29.010Z,37.50
2019-04-03T14:19:43.329Z,37.50
2019-04-03T14:20:45.154Z,37.70
2019-04-03T14:21:52.413Z,36.70
2019-04-03T14:23:03.010Z,36.70
2019-04-03T14:24:09.652Z,36.20
2019-04-03T14:25:20.597Z,36.50
2019-04-03T14:26:26.230Z,36.80
2019-04-03T14:27:33.926Z,36.70
2019-04-03T14:28:42.077Z,36.70
2019-04-03T14:29:49.531Z,37.20
2019-04-03T14:30:56.745Z,37.50
2019-04-03T14:32:04.243Z,37.00
2019-04-03T14:33:11.481Z,36.90